LLHA/HFA METAR and TAF weather

Enter ICAO airport designator
Station Type Date Time Source
LLHA METAR 2020/01/21 17:50 UTC NOAA

LLHA 211750Z 03006KT 9999 SCT030 11/07 Q1020 RMK BKN077 RERA


Station Type Date Time Source
LLHA Decoded METAR 2020/01/21 17:50 UTC NOAA

Sde-Haifa Haifa, Israel (LLHA) 32-48N 035-02E 8M
Jan 21, 2020 - 12:50 PM EST / 2020.01.21 1750 UTC
Wind: from the NNE (030 degrees) at 7 MPH (6 KT):0
Visibility: greater than 7 mile(s):0
Sky conditions: partly cloudy
Temperature: 51 F (11 C)
Dew Point: 44 F (7 C)
Relative Humidity: 76%
Pressure (altimeter): 30.12 in. Hg (1020 hPa)
ob: LLHA 211750Z 03006KT 9999 SCT030 11/07 Q1020 RMK BKN077 RERA
cycle: 18

Station Type Date Time Source
LLHA TAF 2020/01/21 18:00 UTC NOAA

TAF LLHA 211728Z 2118/2218 VRB04KT 9999 SCT025
TEMPO 2118/2124 15008KT 5000 TSRA SCT015 FEW020CB BKN025
TEMPO 2200/2208 5000 RA SCT015 FEW020TCU BKN025
BECMG 2208/2210 34012KT SCT030 PROB30 2210/2214 -RA BKN025 TX15/2212Z TN08/2204Z

Example: see airport list